Ajite — FGE8175 — position and weather

sailwx.info

Track history (hours):
 
Tides and Currents Weather Stations Pressure Air Temp Water Temp Dewpoint Dewpoint Depression Visibility Wind Speed Wind Dir Waves Ship Positions

Ajite

Last reported at 2017-Sep-20 16:29 UTC. Time now 2017-Nov-21 12:05 UTC.
Position N 39°30' E 002°45'.
Warning: this ship's position is months out of date.

Length 14 m.

Type: Sailing vessel. MMSI: 227679170.

Date/timePositionNaut miles runAvg speedWind from/ knotsBaromVisibWave heightAir tempDewpointWater temp
2017-Sep-20 16:29N 39°30' E 002°45'2 3.5
2017-Sep-20 16:00N 39°30' E 002°43'4 7.1
2017-Sep-20 15:30N 39°28' E 002°38'4 7.1
2017-Sep-20 15:00N 39°27' E 002°34'6 5.6
2017-Sep-20 13:59N 39°25' E 002°27'3 5.6
2017-Sep-20 13:29N 39°24' E 002°24'3 5.7
2017-Sep-20 13:00N 39°23' E 002°21'3 5.6
2017-Sep-20 12:30N 39°22' E 002°17'3 6.0
2017-Sep-20 12:00N 39°21' E 002°14'3 6.0
2017-Sep-20 11:30N 39°20' E 002°10'3 6.5
2017-Sep-20 10:59N 39°18' E 002°06'3 6.7
2017-Sep-20 10:29N 39°17' E 002°02'3 6.2
2017-Sep-20 09:59N 39°16' E 001°58'  
2017-Sep-17 00:00N 38°49' E 001°25'4 6.9
2017-Sep-16 23:28N 38°51' E 001°28'16 6.9
2017-Sep-16 21:09N 39°02' E 001°43'2 6.9
2017-Sep-16 20:54N 39°04' E 001°45'3 6.9
2017-Sep-16 20:29N 39°05' E 001°48'3 6.8
2017-Sep-16 20:00N 39°07' E 001°51'3 6.8
2017-Sep-16 19:30N 39°10' E 001°54'3 6.8
2017-Sep-16 19:00N 39°12' E 001°58'3 6.6
2017-Sep-16 18:30N 39°14' E 002°01'3 6.5
2017-Sep-16 18:00N 39°15' E 002°05'3 6.7
2017-Sep-16 17:29N 39°17' E 002°09'4 7.2
2017-Sep-16 16:59N 39°18' E 002°13'4 7.3
2017-Sep-16 16:30N 39°20' E 002°17'4 7.4
2017-Sep-16 16:00N 39°21' E 002°22'4 7.5
2017-Sep-16 15:30N 39°23' E 002°26'4 7.6
2017-Sep-16 15:00N 39°25' E 002°30'4 7.7
2017-Sep-16 14:30N 39°26' E 002°35'4 7.5
2017-Sep-16 14:00N 39°28' E 002°39'4 7.1
2017-Sep-16 13:30N 39°30' E 002°43'1 2.7
2017-Sep-16 12:59N 39°30' E 002°45'0 0.0
2017-Sep-16 12:26N 39°30' E 002°45'0 0.0
2017-Sep-16 11:59N 39°30' E 002°45'0 0.0
2017-Sep-16 11:29N 39°30' E 002°45'0 0.0
2017-Sep-16 10:59N 39°30' E 002°45'0 0.0
2017-Sep-16 10:26N 39°30' E 002°45'0 0.0
2017-Sep-16 09:59N 39°30' E 002°45'0 0.0
2017-Sep-16 09:29N 39°30' E 002°45'0 0.0
2017-Sep-16 08:59N 39°30' E 002°45'0 0.0
2017-Sep-16 08:29N 39°30' E 002°45'0 0.0
2017-Sep-16 07:56N 39°30' E 002°45'0 0.0
2017-Sep-16 07:29N 39°30' E 002°45'0 0.0
2017-Sep-16 06:59N 39°30' E 002°45'0 0.0
2017-Sep-16 06:26N 39°30' E 002°45'0 0.0
2017-Sep-16 05:59N 39°30' E 002°45'0 0.0
2017-Sep-16 05:29N 39°30' E 002°45'0 0.0
2017-Sep-16 04:59N 39°30' E 002°45'0 0.0
2017-Sep-16 04:29N 39°30' E 002°45'0 0.0
2017-Sep-16 03:53N 39°30' E 002°45'0 0.0
2017-Sep-16 03:29N 39°30' E 002°45'0 0.0
2017-Sep-16 02:59N 39°30' E 002°45'0 0.0
2017-Sep-16 02:29N 39°30' E 002°45'0 0.0
2017-Sep-16 01:59N 39°30' E 002°45'0 0.0
2017-Sep-16 01:26N 39°30' E 002°45'0 0.0
2017-Sep-16 00:59N 39°30' E 002°45'0 0.0
2017-Sep-16 00:29N 39°30' E 002°45'0 0.0
2017-Sep-15 23:59N 39°30' E 002°45'0 0.0
2017-Sep-15 23:26N 39°30' E 002°45'0 0.0
2017-Sep-15 22:59N 39°30' E 002°45'0 0.0
2017-Sep-15 22:29N 39°30' E 002°45'0 0.0
2017-Sep-15 21:59N 39°30' E 002°45'0 0.0
2017-Sep-15 21:29N 39°30' E 002°45'0 0.0
2017-Sep-15 20:59N 39°30' E 002°45'0 0.0
2017-Sep-15 20:29N 39°30' E 002°45'0 0.0
2017-Sep-15 19:59N 39°30' E 002°45'0 0.0
2017-Sep-15 19:29N 39°30' E 002°45'0 0.0
2017-Sep-15 18:59N 39°30' E 002°45'0 0.0
2017-Sep-15 18:29N 39°30' E 002°45'0 0.0
2017-Sep-15 17:59N 39°30' E 002°45'0 0.0
2017-Sep-15 17:29N 39°30' E 002°45'0 0.0
2017-Sep-15 16:59N 39°30' E 002°45'0 0.0
2017-Sep-15 16:29N 39°30' E 002°45'0 0.0
2017-Sep-15 15:59N 39°30' E 002°45'0 0.0
2017-Sep-15 15:29N 39°30' E 002°45'  
Track history (hours):
 
Tides and Currents Weather Stations Pressure Air Temp Water Temp Dewpoint Dewpoint Depression Visibility Wind Speed Wind Dir Waves Ship Positions

Ajite

Last reported at 2017-Sep-20 16:29 UTC. Time now 2017-Nov-21 12:05 UTC.
Position N 39°30' E 002°45'.
Warning: this ship's position is months out of date.

Length 14 m.

Type: Sailing vessel. MMSI: 227679170.

Date/timePositionNaut miles runAvg speedWind from/ knotsBaromVisibWave heightAir tempDewpointWater temp
2017-Sep-20 16:29N 39°30' E 002°45'2 3.5
2017-Sep-20 16:00N 39°30' E 002°43'4 7.1
2017-Sep-20 15:30N 39°28' E 002°38'4 7.1
2017-Sep-20 15:00N 39°27' E 002°34'6 5.6
2017-Sep-20 13:59N 39°25' E 002°27'3 5.6
2017-Sep-20 13:29N 39°24' E 002°24'3 5.7
2017-Sep-20 13:00N 39°23' E 002°21'3 5.6
2017-Sep-20 12:30N 39°22' E 002°17'3 6.0
2017-Sep-20 12:00N 39°21' E 002°14'3 6.0
2017-Sep-20 11:30N 39°20' E 002°10'3 6.5
2017-Sep-20 10:59N 39°18' E 002°06'3 6.7
2017-Sep-20 10:29N 39°17' E 002°02'3 6.2
2017-Sep-20 09:59N 39°16' E 001°58'  
2017-Sep-17 00:00N 38°49' E 001°25'4 6.9
2017-Sep-16 23:28N 38°51' E 001°28'16 6.9
2017-Sep-16 21:09N 39°02' E 001°43'2 6.9
2017-Sep-16 20:54N 39°04' E 001°45'3 6.9
2017-Sep-16 20:29N 39°05' E 001°48'3 6.8
2017-Sep-16 20:00N 39°07' E 001°51'3 6.8
2017-Sep-16 19:30N 39°10' E 001°54'3 6.8
2017-Sep-16 19:00N 39°12' E 001°58'3 6.6
2017-Sep-16 18:30N 39°14' E 002°01'3 6.5
2017-Sep-16 18:00N 39°15' E 002°05'3 6.7
2017-Sep-16 17:29N 39°17' E 002°09'4 7.2
2017-Sep-16 16:59N 39°18' E 002°13'4 7.3
2017-Sep-16 16:30N 39°20' E 002°17'4 7.4
2017-Sep-16 16:00N 39°21' E 002°22'4 7.5
2017-Sep-16 15:30N 39°23' E 002°26'4 7.6
2017-Sep-16 15:00N 39°25' E 002°30'4 7.7
2017-Sep-16 14:30N 39°26' E 002°35'4 7.5
2017-Sep-16 14:00N 39°28' E 002°39'4 7.1
2017-Sep-16 13:30N 39°30' E 002°43'1 2.7
2017-Sep-16 12:59N 39°30' E 002°45'0 0.0
2017-Sep-16 12:26N 39°30' E 002°45'0 0.0
2017-Sep-16 11:59N 39°30' E 002°45'0 0.0
2017-Sep-16 11:29N 39°30' E 002°45'0 0.0
2017-Sep-16 10:59N 39°30' E 002°45'0 0.0
2017-Sep-16 10:26N 39°30' E 002°45'0 0.0
2017-Sep-16 09:59N 39°30' E 002°45'0 0.0
2017-Sep-16 09:29N 39°30' E 002°45'0 0.0
2017-Sep-16 08:59N 39°30' E 002°45'0 0.0
2017-Sep-16 08:29N 39°30' E 002°45'0 0.0
2017-Sep-16 07:56N 39°30' E 002°45'0 0.0
2017-Sep-16 07:29N 39°30' E 002°45'0 0.0
2017-Sep-16 06:59N 39°30' E 002°45'0 0.0
2017-Sep-16 06:26N 39°30' E 002°45'0 0.0
2017-Sep-16 05:59N 39°30' E 002°45'0 0.0
2017-Sep-16 05:29N 39°30' E 002°45'0 0.0
2017-Sep-16 04:59N 39°30' E 002°45'0 0.0
2017-Sep-16 04:29N 39°30' E 002°45'0 0.0
2017-Sep-16 03:53N 39°30' E 002°45'0 0.0
2017-Sep-16 03:29N 39°30' E 002°45'0 0.0
2017-Sep-16 02:59N 39°30' E 002°45'0 0.0
2017-Sep-16 02:29N 39°30' E 002°45'0 0.0
2017-Sep-16 01:59N 39°30' E 002°45'0 0.0
2017-Sep-16 01:26N 39°30' E 002°45'0 0.0
2017-Sep-16 00:59N 39°30' E 002°45'0 0.0
2017-Sep-16 00:29N 39°30' E 002°45'0 0.0
2017-Sep-15 23:59N 39°30' E 002°45'0 0.0
2017-Sep-15 23:26N 39°30' E 002°45'0 0.0
2017-Sep-15 22:59N 39°30' E 002°45'0 0.0
2017-Sep-15 22:29N 39°30' E 002°45'0 0.0
2017-Sep-15 21:59N 39°30' E 002°45'0 0.0
2017-Sep-15 21:29N 39°30' E 002°45'0 0.0
2017-Sep-15 20:59N 39°30' E 002°45'0 0.0
2017-Sep-15 20:29N 39°30' E 002°45'0 0.0
2017-Sep-15 19:59N 39°30' E 002°45'0 0.0
2017-Sep-15 19:29N 39°30' E 002°45'0 0.0
2017-Sep-15 18:59N 39°30' E 002°45'0 0.0
2017-Sep-15 18:29N 39°30' E 002°45'0 0.0
2017-Sep-15 17:59N 39°30' E 002°45'0 0.0
2017-Sep-15 17:29N 39°30' E 002°45'0 0.0
2017-Sep-15 16:59N 39°30' E 002°45'0 0.0
2017-Sep-15 16:29N 39°30' E 002°45'0 0.0
2017-Sep-15 15:59N 39°30' E 002°45'0 0.0
2017-Sep-15 15:29N 39°30' E 002°45'  

Dump ship's entire track history